Time;durP1;ratioP1;P1;durP2;ratioP2;P2;SDS_P1;SDS_P2;PMS_P1;PMS_P2;Temp;Humidity;BMP_temperature;BMP_pressure;BME280_temperature;BME280_humidity;BME280_pressure;Samples;Min_cycle;Max_cycle;Signal;HPM_P1;HPM_P2
2021/12/08 00:00:28;;;;;;;;;;;3.60;99.90;;;;;;5094010;28;20488;-74
2021/12/08 00:02:54;;;;;;;;;;;3.50;99.90;;;;;;5077354;28;20339;-75
2021/12/08 00:05:20;;;;;;;;;;;3.40;99.90;;;;;;5093660;28;20451;-74
2021/12/08 00:07:46;;;;;;;;;;;3.30;99.90;;;;;;5092775;28;19932;-75
2021/12/08 00:15:22;;;;;;;;;;;3.10;99.90;;;;;;5093573;28;19920;-74
2021/12/08 00:17:47;;;;;;;;;;;3.00;99.90;;;;;;5092962;28;19927;-75
2021/12/08 00:20:13;;;;;;;;;;;3.00;99.90;;;;;;5093349;28;19923;-75
2021/12/08 00:22:39;;;;;;;;;;;2.90;99.90;;;;;;5093162;28;19920;-75
2021/12/08 00:25:05;;;;;;;;;;;2.90;99.90;;;;;;5092635;28;19932;-74
2021/12/08 00:27:30;;;;;;;;;;;2.90;99.90;;;;;;5093455;28;19920;-75
2021/12/08 00:29:56;;;;;;;;;;;2.80;99.90;;;;;;5110699;28;19920;-75
2021/12/08 00:32:27;;;;;;;;;;;2.80;99.90;;;;;;5092812;28;19920;-74
2021/12/08 00:34:53;;;;;;;;;;;2.80;99.90;;;;;;5093041;28;20014;-74
2021/12/08 00:37:18;;;;;;;;;;;2.70;99.90;;;;;;5093279;28;19999;-74
2021/12/08 00:39:44;;;;;;;;;;;2.60;99.90;;;;;;5092355;28;19931;-75
2021/12/08 00:42:10;;;;;;;;;;;2.70;99.90;;;;;;5092389;28;20282;-75
2021/12/08 00:44:35;;;;;;;;;;;2.60;99.90;;;;;;5093157;28;19920;-75
2021/12/08 00:47:01;;;;;;;;;;;2.60;99.90;;;;;;5092664;28;19924;-75
2021/12/08 00:49:26;;;;;;;;;;;2.60;99.90;;;;;;5091729;28;19924;-75
2021/12/08 00:51:53;;;;;;;;;;;2.60;99.90;;;;;;5092445;28;19920;-75
2021/12/08 00:54:19;;;;;;;;;;;2.70;99.90;;;;;;5092256;28;19927;-75
2021/12/08 00:56:45;;;;;;;;;;;2.60;99.90;;;;;;5092693;28;19928;-74
2021/12/08 00:59:10;;;;;;;;;;;2.70;99.90;;;;;;5092251;28;19927;-75
2021/12/08 01:01:36;;;;;;;;;;;2.70;99.90;;;;;;5092447;28;20373;-75
2021/12/08 01:04:01;;;;;;;;;;;2.70;99.90;;;;;;5092400;28;19942;-75
2021/12/08 01:06:27;;;;;;;;;;;2.70;99.90;;;;;;5092203;28;20308;-75
2021/12/08 01:08:53;;;;;;;;;;;2.70;99.90;;;;;;5109190;28;19930;-75
2021/12/08 01:11:19;;;;;;;;;;;2.80;99.90;;;;;;5092105;28;20014;-75
2021/12/08 01:13:45;;;;;;;;;;;2.80;99.90;;;;;;5092366;28;19920;-75
2021/12/08 01:16:12;;;;;;;;;;;2.80;99.90;;;;;;5092428;28;19924;-75
2021/12/08 01:18:37;;;;;;;;;;;2.80;99.90;;;;;;5092148;28;19920;-75
2021/12/08 01:21:04;;;;;;;;;;;2.80;99.90;;;;;;5091837;28;19942;-75
2021/12/08 01:23:30;;;;;;;;;;;2.80;99.90;;;;;;5091865;28;19980;-75
2021/12/08 01:25:56;;;;;;;;;;;2.80;99.90;;;;;;5091807;28;19923;-75
2021/12/08 01:28:23;;;;;;;;;;;2.90;99.90;;;;;;5109382;28;19926;-74
2021/12/08 01:30:49;;;;;;;;;;;2.90;99.90;;;;;;5074700;28;19927;-75
2021/12/08 01:33:15;;;;;;;;;;;2.80;99.90;;;;;;5091674;28;19975;-74
2021/12/08 01:35:41;;;;;;;;;;;2.80;99.90;;;;;;5108436;28;19973;-74
2021/12/08 01:38:07;;;;;;;;;;;2.80;99.90;;;;;;5091641;28;19926;-75
2021/12/08 01:40:32;;;;;;;;;;;2.80;99.90;;;;;;5088684;28;19925;-75
2021/12/08 01:43:00;;;;;;;;;;;2.80;99.90;;;;;;5089781;28;19926;-75
2021/12/08 01:48:13;;;;;;;;;;;2.90;99.90;;;;;;5089152;28;20374;-74
2021/12/08 01:50:39;;;;;;;;;;;2.90;99.90;;;;;;5088980;28;19947;-75
2021/12/08 01:53:06;;;;;;;;;;;2.80;99.90;;;;;;5088964;28;19927;-74
2021/12/08 01:55:31;;;;;;;;;;;2.90;99.90;;;;;;5088532;28;19951;-74
2021/12/08 01:57:57;;;;;;;;;;;2.80;99.90;;;;;;5089000;28;20349;-74
2021/12/08 02:00:25;;;;;;;;;;;2.80;99.90;;;;;;5089019;28;19959;-74
2021/12/08 02:02:51;;;;;;;;;;;2.80;99.90;;;;;;5090233;28;19927;-74
2021/12/08 02:05:17;;;;;;;;;;;2.80;99.90;;;;;;5088937;28;19946;-74
2021/12/08 02:07:43;;;;;;;;;;;2.80;99.90;;;;;;5088598;28;19923;-75
2021/12/08 02:10:09;;;;;;;;;;;2.80;99.90;;;;;;5090247;28;20007;-74
2021/12/08 02:12:38;;;;;;;;;;;2.80;99.90;;;;;;5088478;28;20348;-74
2021/12/08 02:15:05;;;;;;;;;;;2.80;99.90;;;;;;5088884;28;19920;-74
2021/12/08 02:17:31;;;;;;;;;;;2.80;99.90;;;;;;5089082;28;19920;-74
2021/12/08 02:19:56;;;;;;;;;;;2.80;99.90;;;;;;5089043;28;19920;-74
2021/12/08 02:22:22;;;;;;;;;;;2.80;99.90;;;;;;5088482;28;20787;-74
2021/12/08 02:24:47;;;;;;;;;;;2.80;99.90;;;;;;5090036;28;19981;-74
2021/12/08 02:27:13;;;;;;;;;;;2.80;99.90;;;;;;5071889;28;19927;-74
2021/12/08 02:29:46;;;;;;;;;;;2.80;99.90;;;;;;5088916;28;20341;-74
2021/12/08 02:48:28;;;;;;;;;;;2.90;99.90;;;;;;5092027;28;20294;-74
2021/12/08 02:50:55;;;;;;;;;;;2.90;99.90;;;;;;5091635;28;19919;-74
2021/12/08 02:53:20;;;;;;;;;;;3.00;99.90;;;;;;5091762;28;19927;-74
2021/12/08 02:55:47;;;;;;;;;;;3.00;99.90;;;;;;5075034;28;19919;-74
2021/12/08 02:58:13;;;;;;;;;;;3.00;99.90;;;;;;5113421;28;19919;-74
2021/12/08 03:00:44;;;;;;;;;;;3.00;99.90;;;;;;5095970;28;19920;-74
2021/12/08 03:03:09;;;;;;;;;;;3.00;99.90;;;;;;5095985;28;20432;-74
2021/12/08 03:05:35;;;;;;;;;;;3.10;99.90;;;;;;5113990;28;19924;-74
2021/12/08 03:08:03;;;;;;;;;;;3.10;99.90;;;;;;5095159;28;20034;-74
2021/12/08 03:10:29;;;;;;;;;;;3.10;99.90;;;;;;5078588;28;19926;-74
2021/12/08 03:12:55;;;;;;;;;;;3.10;99.90;;;;;;5094779;28;19962;-75
2021/12/08 03:15:21;;;;;;;;;;;3.10;99.90;;;;;;5095681;28;20367;-74
2021/12/08 03:17:46;;;;;;;;;;;3.20;99.90;;;;;;5094776;28;19923;-75
2021/12/08 03:20:15;;;;;;;;;;;3.20;99.90;;;;;;5095572;28;19975;-74
2021/12/08 03:22:45;;;;;;;;;;;3.20;99.90;;;;;;5095485;28;20400;-75
2021/12/08 03:25:14;;;;;;;;;;;3.20;99.90;;;;;;5087607;28;19919;-74
2021/12/08 03:27:48;;;;;;;;;;;3.30;99.90;;;;;;5095306;28;20007;-74
2021/12/08 03:30:18;;;;;;;;;;;3.30;99.90;;;;;;5091247;28;20043;-75
2021/12/08 03:32:44;;;;;;;;;;;3.30;99.90;;;;;;5091820;28;19972;-75
2021/12/08 03:35:12;;;;;;;;;;;3.30;99.90;;;;;;5094777;28;19920;-75
2021/12/08 03:37:40;;;;;;;;;;;3.40;99.90;;;;;;5095119;28;19924;-74
2021/12/08 03:40:08;;;;;;;;;;;3.40;99.90;;;;;;5094916;28;19970;-75
2021/12/08 03:42:37;;;;;;;;;;;3.40;99.90;;;;;;5091525;28;19923;-75
2021/12/08 03:45:07;;;;;;;;;;;3.40;99.90;;;;;;5091357;28;19973;-75
2021/12/08 03:47:33;;;;;;;;;;;3.50;99.90;;;;;;5074869;28;20015;-74
2021/12/08 03:50:00;;;;;;;;;;;3.50;99.90;;;;;;5091381;28;20018;-75
2021/12/08 03:52:26;;;;;;;;;;;3.60;99.90;;;;;;5090997;28;19920;-74
2021/12/08 03:54:51;;;;;;;;;;;3.60;99.90;;;;;;5091381;28;19985;-74
2021/12/08 03:57:17;;;;;;;;;;;3.60;99.90;;;;;;5091685;28;20432;-74
2021/12/08 03:59:42;;;;;;;;;;;3.60;99.90;;;;;;5094079;28;19972;-74
2021/12/08 04:02:08;;;;;;;;;;;3.60;99.90;;;;;;5112780;28;20026;-74
2021/12/08 04:04:43;;;;;;;;;;;3.60;99.90;;;;;;5112943;28;19963;-74
2021/12/08 04:07:08;;;;;;;;;;;3.60;99.90;;;;;;5093861;28;19919;-74
2021/12/08 04:09:40;;;;;;;;;;;3.70;99.90;;;;;;5094368;28;19993;-74
2021/12/08 04:12:05;;;;;;;;;;;3.70;99.90;;;;;;5093754;28;19924;-74
2021/12/08 04:14:35;;;;;;;;;;;3.70;99.90;;;;;;5094241;28;19919;-75
2021/12/08 04:17:03;;;;;;;;;;;3.80;99.90;;;;;;5094517;28;19920;-74
2021/12/08 04:19:29;;;;;;;;;;;3.70;99.90;;;;;;5094300;28;19924;-75
2021/12/08 04:21:55;;;;;;;;;;;3.80;99.90;;;;;;5093591;28;19920;-74
2021/12/08 04:24:21;;;;;;;;;;;3.80;99.90;;;;;;5077519;28;20018;-75
2021/12/08 04:26:56;;;;;;;;;;;3.80;99.90;;;;;;5094526;28;20338;-74
2021/12/08 04:29:27;;;;;;;;;;;3.90;99.90;;;;;;5094019;28;19927;-74
2021/12/08 04:31:53;;;;;;;;;;;3.90;99.90;;;;;;5077433;28;19928;-74
2021/12/08 04:34:23;;;;;;;;;;;3.90;99.90;;;;;;5090227;28;19927;-74
2021/12/08 04:36:50;;;;;;;;;;;3.90;99.90;;;;;;5090696;28;20291;-74
2021/12/08 04:39:36;;;;;;;;;;;3.90;99.90;;;;;;5090558;28;19974;-74
2021/12/08 04:42:07;;;;;;;;;;;4.00;99.90;;;;;;5090351;28;19927;-74
2021/12/08 04:44:44;;;;;;;;;;;3.90;99.90;;;;;;5090630;28;19989;-74
2021/12/08 05:06:17;;;;;;;;;;;4.10;99.90;;;;;;5090426;28;19924;-74
2021/12/08 05:08:44;;;;;;;;;;;4.20;99.90;;;;;;5089868;28;19972;-75
2021/12/08 05:11:19;;;;;;;;;;;4.20;99.90;;;;;;5089550;28;20016;-74
2021/12/08 05:13:46;;;;;;;;;;;4.20;99.90;;;;;;5089573;28;19920;-74
2021/12/08 05:16:14;;;;;;;;;;;4.20;99.90;;;;;;5089163;28;20463;-75
2021/12/08 05:18:42;;;;;;;;;;;4.30;99.90;;;;;;5089877;28;19925;-75
2021/12/08 05:21:10;;;;;;;;;;;4.20;99.90;;;;;;5089517;28;19924;-74
2021/12/08 05:23:39;;;;;;;;;;;4.30;99.90;;;;;;5089549;28;19924;-74
2021/12/08 05:26:09;;;;;;;;;;;4.30;99.90;;;;;;5073035;28;20561;-74
2021/12/08 05:28:36;;;;;;;;;;;4.30;99.90;;;;;;5089853;28;20285;-74
2021/12/08 05:31:04;;;;;;;;;;;4.40;99.90;;;;;;5089294;28;19973;-74
2021/12/08 05:33:30;;;;;;;;;;;4.40;99.90;;;;;;5075533;28;19931;-74
2021/12/08 05:35:56;;;;;;;;;;;4.40;99.90;;;;;;5075785;28;20294;-75
2021/12/08 05:38:23;;;;;;;;;;;4.40;99.90;;;;;;5092899;28;19924;-74
2021/12/08 05:40:51;;;;;;;;;;;4.40;99.90;;;;;;5092895;28;19924;-75
2021/12/08 05:43:18;;;;;;;;;;;4.40;99.90;;;;;;5092588;28;19973;-75
2021/12/08 05:45:45;;;;;;;;;;;4.50;99.90;;;;;;5092872;28;19947;-75
2021/12/08 05:48:11;;;;;;;;;;;4.50;99.90;;;;;;5092255;28;19949;-74
2021/12/08 05:50:42;;;;;;;;;;;4.50;99.90;;;;;;5110885;28;19924;-75
2021/12/08 05:53:08;;;;;;;;;;;4.60;99.90;;;;;;5091875;28;19924;-75
2021/12/08 05:55:33;;;;;;;;;;;4.60;99.90;;;;;;5092949;28;20368;-74
2021/12/08 05:57:59;;;;;;;;;;;4.60;99.90;;;;;;5075521;28;19924;-75
2021/12/08 06:00:30;;;;;;;;;;;4.60;99.90;;;;;;5091206;28;19927;-75
2021/12/08 06:02:56;;;;;;;;;;;4.60;99.90;;;;;;5091013;28;19923;-74
2021/12/08 06:05:22;;;;;;;;;;;4.60;99.90;;;;;;5109697;28;20308;-74
2021/12/08 06:07:48;;;;;;;;;;;4.60;99.90;;;;;;5071613;28;19931;-74
2021/12/08 06:10:22;;;;;;;;;;;4.60;99.90;;;;;;5089077;28;19927;-75
2021/12/08 06:12:48;;;;;;;;;;;4.70;99.90;;;;;;5071850;28;19931;-74
2021/12/08 06:15:14;;;;;;;;;;;4.70;99.90;;;;;;5088751;28;19928;-75
2021/12/08 06:17:39;;;;;;;;;;;4.70;99.90;;;;;;5088271;28;19948;-75
2021/12/08 06:20:06;;;;;;;;;;;4.70;99.90;;;;;;5088651;28;19931;-75
2021/12/08 06:22:32;;;;;;;;;;;4.80;99.90;;;;;;5072029;28;19924;-74
2021/12/08 06:24:57;;;;;;;;;;;4.80;99.90;;;;;;5088359;28;20065;-75
2021/12/08 06:27:24;;;;;;;;;;;4.80;99.90;;;;;;5088526;28;19930;-75
2021/12/08 06:29:49;;;;;;;;;;;4.80;99.90;;;;;;5089025;28;19924;-75
2021/12/08 06:32:15;;;;;;;;;;;4.80;99.90;;;;;;5093069;28;19931;-74
2021/12/08 06:34:44;;;;;;;;;;;4.80;99.90;;;;;;5074350;28;19924;-74
2021/12/08 06:37:12;;;;;;;;;;;4.80;99.90;;;;;;5072460;28;19924;-75
2021/12/08 06:39:41;;;;;;;;;;;4.80;99.90;;;;;;5072319;28;19925;-75
2021/12/08 06:42:12;;;;;;;;;;;4.80;99.90;;;;;;5072807;28;20369;-75
2021/12/08 06:44:40;;;;;;;;;;;4.80;99.90;;;;;;5072539;28;19925;-75
2021/12/08 06:47:06;;;;;;;;;;;4.80;99.90;;;;;;5074756;28;19931;-75
2021/12/08 06:49:32;;;;;;;;;;;4.80;99.90;;;;;;5090835;28;19935;-73
2021/12/08 06:52:00;;;;;;;;;;;4.80;99.90;;;;;;5090482;28;20313;-73
2021/12/08 06:54:29;;;;;;;;;;;4.80;99.90;;;;;;5092790;28;19935;-73
2021/12/08 06:56:57;;;;;;;;;;;4.80;99.90;;;;;;5092298;28;19967;-73
2021/12/08 06:59:26;;;;;;;;;;;4.80;99.90;;;;;;5090550;28;19942;-72
2021/12/08 07:02:07;;;;;;;;;;;4.80;99.90;;;;;;5091049;28;20381;-74
2021/12/08 07:04:57;;;;;;;;;;;4.80;99.90;;;;;;5091503;28;20655;-73
2021/12/08 07:07:27;;;;;;;;;;;4.80;99.90;;;;;;5090986;28;19928;-74
2021/12/08 07:09:56;;;;;;;;;;;4.70;99.90;;;;;;5091072;28;19969;-74
2021/12/08 07:12:24;;;;;;;;;;;4.70;99.90;;;;;;5090166;28;19935;-74
2021/12/08 07:14:52;;;;;;;;;;;4.70;99.90;;;;;;5091285;28;19924;-73
2021/12/08 07:17:22;;;;;;;;;;;4.70;99.90;;;;;;5092476;28;19924;-74
2021/12/08 07:20:02;;;;;;;;;;;4.70;99.90;;;;;;5091180;28;19924;-74
2021/12/08 07:22:29;;;;;;;;;;;4.70;99.90;;;;;;5074111;28;19925;-74
2021/12/08 07:24:57;;;;;;;;;;;4.70;99.90;;;;;;5091472;28;20011;-74
2021/12/08 07:27:25;;;;;;;;;;;4.70;99.90;;;;;;5091496;28;19934;-74
2021/12/08 07:29:51;;;;;;;;;;;4.70;99.90;;;;;;5091840;28;19927;-74
2021/12/08 07:32:23;;;;;;;;;;;4.80;99.90;;;;;;5092067;28;20294;-74
2021/12/08 07:34:51;;;;;;;;;;;4.70;99.90;;;;;;5055895;28;19968;-74
2021/12/08 07:37:18;;;;;;;;;;;4.70;99.90;;;;;;5088024;28;19924;-74
2021/12/08 07:39:47;;;;;;;;;;;4.70;99.90;;;;;;5071093;28;19931;-74
2021/12/08 07:42:19;;;;;;;;;;;4.60;99.90;;;;;;5054074;28;20371;-74
2021/12/08 07:44:49;;;;;;;;;;;4.60;99.90;;;;;;5087756;28;20324;-74
2021/12/08 07:47:16;;;;;;;;;;;4.60;99.90;;;;;;5053276;28;19925;-74
2021/12/08 07:49:45;;;;;;;;;;;4.60;99.90;;;;;;5070636;28;19930;-74
2021/12/08 07:52:13;;;;;;;;;;;4.60;99.90;;;;;;5087438;28;20378;-74
2021/12/08 07:54:40;;;;;;;;;;;4.60;99.90;;;;;;5071138;28;19924;-74
2021/12/08 07:57:08;;;;;;;;;;;4.50;99.90;;;;;;5071046;28;19935;-74
2021/12/08 07:59:36;;;;;;;;;;;4.50;99.90;;;;;;5087930;28;20383;-74
2021/12/08 08:02:07;;;;;;;;;;;4.50;99.90;;;;;;5087386;28;19924;-74
2021/12/08 08:04:34;;;;;;;;;;;4.50;99.90;;;;;;5072489;28;19946;-74
2021/12/08 08:06:59;;;;;;;;;;;4.60;99.90;;;;;;5054033;28;19925;-74
2021/12/08 08:09:28;;;;;;;;;;;4.60;99.90;;;;;;5087944;28;19988;-74
2021/12/08 08:11:57;;;;;;;;;;;4.60;99.90;;;;;;5087534;28;19925;-74
2021/12/08 08:14:31;;;;;;;;;;;4.50;99.90;;;;;;5071020;28;19924;-74
2021/12/08 08:16:58;;;;;;;;;;;4.50;99.90;;;;;;5070728;28;19930;-74
2021/12/08 08:19:28;;;;;;;;;;;4.50;99.90;;;;;;5087703;28;19970;-74
2021/12/08 08:21:55;;;;;;;;;;;4.50;99.90;;;;;;5087464;28;19935;-74
2021/12/08 08:24:20;;;;;;;;;;;4.50;99.90;;;;;;5087578;28;19924;-74
2021/12/08 08:26:48;;;;;;;;;;;4.50;99.90;;;;;;5070234;28;20403;-74
2021/12/08 08:29:14;;;;;;;;;;;4.50;99.90;;;;;;5070581;28;20333;-74
2021/12/08 08:31:53;;;;;;;;;;;4.50;99.90;;;;;;5069082;28;19932;-74
2021/12/08 08:34:19;;;;;;;;;;;4.50;99.90;;;;;;5052754;28;19925;-74
2021/12/08 08:36:46;;;;;;;;;;;4.50;99.90;;;;;;5069216;28;19925;-74
2021/12/08 08:39:15;;;;;;;;;;;4.60;99.90;;;;;;5069447;28;20224;-74
2021/12/08 08:41:46;;;;;;;;;;;4.60;99.90;;;;;;5069217;28;19929;-74
2021/12/08 08:44:14;;;;;;;;;;;4.60;99.90;;;;;;5069704;28;19928;-74
2021/12/08 08:46:42;;;;;;;;;;;4.60;99.90;;;;;;5071538;28;19970;-74
2021/12/08 08:49:10;;;;;;;;;;;4.70;99.90;;;;;;5069885;28;20383;-74
2021/12/08 08:51:38;;;;;;;;;;;4.80;99.90;;;;;;5070331;28;20018;-74
2021/12/08 08:54:08;;;;;;;;;;;4.80;99.90;;;;;;5069236;28;20397;-74
2021/12/08 08:56:39;;;;;;;;;;;4.90;99.90;;;;;;5069896;28;19924;-74
2021/12/08 08:59:12;;;;;;;;;;;4.90;99.90;;;;;;5069832;28;19930;-74
2021/12/08 09:01:41;;;;;;;;;;;4.90;99.90;;;;;;5069729;28;19974;-74
2021/12/08 09:04:12;;;;;;;;;;;5.00;99.90;;;;;;5071186;28;20472;-74
2021/12/08 09:06:39;;;;;;;;;;;5.00;99.90;;;;;;5056032;28;19935;-74
2021/12/08 09:09:07;;;;;;;;;;;5.00;99.90;;;;;;5089963;28;19930;-74
2021/12/08 09:11:36;;;;;;;;;;;5.10;99.90;;;;;;5089762;28;19925;-74
2021/12/08 09:14:05;;;;;;;;;;;5.10;99.90;;;;;;5089745;28;19931;-74
2021/12/08 09:16:36;;;;;;;;;;;5.10;99.90;;;;;;5073333;28;19928;-74
2021/12/08 09:19:09;;;;;;;;;;;5.20;99.90;;;;;;5089801;28;19924;-74
2021/12/08 09:21:43;;;;;;;;;;;5.20;99.90;;;;;;5089824;28;19982;-74
2021/12/08 09:24:12;;;;;;;;;;;5.20;99.90;;;;;;5089618;28;19924;-74
2021/12/08 09:26:44;;;;;;;;;;;5.20;99.90;;;;;;5090007;28;19930;-74
2021/12/08 09:29:18;;;;;;;;;;;5.20;99.90;;;;;;5072155;28;20018;-74
2021/12/08 09:31:49;;;;;;;;;;;5.30;99.90;;;;;;5089358;28;19963;-74
2021/12/08 09:34:20;;;;;;;;;;;5.30;99.90;;;;;;5092600;28;19924;-74
2021/12/08 09:36:48;;;;;;;;;;;5.40;99.90;;;;;;5092195;28;20015;-74
2021/12/08 09:39:20;;;;;;;;;;;5.40;99.90;;;;;;5092711;28;19950;-74
2021/12/08 09:41:49;;;;;;;;;;;5.50;99.90;;;;;;5091944;28;19923;-74
2021/12/08 09:44:18;;;;;;;;;;;5.60;99.90;;;;;;5091812;28;20015;-74
2021/12/08 09:46:45;;;;;;;;;;;5.60;99.90;;;;;;5075821;28;19971;-74
2021/12/08 09:49:12;;;;;;;;;;;5.70;99.90;;;;;;5092796;28;19923;-74
2021/12/08 09:51:38;;;;;;;;;;;5.70;99.90;;;;;;5092606;28;19924;-74
2021/12/08 09:54:05;;;;;;;;;;;5.70;99.90;;;;;;5092385;28;20489;-74
2021/12/08 09:56:33;;;;;;;;;;;5.70;99.90;;;;;;5092123;28;20472;-74
2021/12/08 09:58:58;;;;;;;;;;;5.70;99.90;;;;;;5092557;28;19924;-74
2021/12/08 10:01:24;;;;;;;;;;;5.70;99.90;;;;;;5092524;28;20377;-74
2021/12/08 10:03:52;;;;;;;;;;;5.70;99.90;;;;;;5092567;28;20440;-74
2021/12/08 10:06:18;;;;;;;;;;;5.70;99.90;;;;;;5091711;28;19924;-74
2021/12/08 10:08:45;;;;;;;;;;;5.70;99.90;;;;;;5092541;28;19927;-74
2021/12/08 10:11:11;;;;;;;;;;;5.70;99.90;;;;;;5091957;28;19924;-75
2021/12/08 10:13:36;;;;;;;;;;;5.80;99.90;;;;;;5091881;28;19924;-74
2021/12/08 10:16:02;;;;;;;;;;;5.80;99.90;;;;;;5075813;28;20262;-75
2021/12/08 10:18:28;;;;;;;;;;;5.90;99.90;;;;;;5092577;28;19923;-74
2021/12/08 10:20:55;;;;;;;;;;;5.90;99.90;;;;;;5074928;28;19934;-74
2021/12/08 10:23:24;;;;;;;;;;;5.90;99.90;;;;;;5091968;28;19928;-74
2021/12/08 10:26:25;;;;;;;;;;;5.90;99.90;;;;;;5109885;28;19924;-74
2021/12/08 10:28:54;;;;;;;;;;;5.90;99.90;;;;;;5030354;28;19932;-74
2021/12/08 10:31:30;;;;;;;;;;;6.00;99.90;;;;;;5080260;28;20331;-74
2021/12/08 10:39:21;;;;;;;;;;;6.10;99.90;;;;;;5088457;28;19954;-74
2021/12/08 10:41:48;;;;;;;;;;;6.10;99.90;;;;;;5071653;28;19924;-74
2021/12/08 10:44:14;;;;;;;;;;;6.20;99.90;;;;;;5088496;28;19939;-74
2021/12/08 10:46:39;;;;;;;;;;;6.30;99.90;;;;;;5088897;28;20353;-74
2021/12/08 10:49:14;;;;;;;;;;;6.50;99.90;;;;;;5088640;28;19931;-74
2021/12/08 10:54:30;;;;;;;;;;;6.70;99.90;;;;;;5088548;28;19924;-75
2021/12/08 10:56:57;;;;;;;;;;;6.80;99.90;;;;;;5088383;28;19931;-74
2021/12/08 10:59:27;;;;;;;;;;;6.90;99.90;;;;;;5071544;28;19975;-74
2021/12/08 11:01:59;;;;;;;;;;;7.00;99.90;;;;;;5087860;28;20019;-74
2021/12/08 11:04:31;;;;;;;;;;;7.00;99.90;;;;;;5088559;28;19977;-74
2021/12/08 11:07:04;;;;;;;;;;;7.10;99.90;;;;;;5088325;28;20002;-74
2021/12/08 11:09:37;;;;;;;;;;;7.20;99.90;;;;;;5088443;28;19931;-74
2021/12/08 11:12:03;;;;;;;;;;;7.80;99.90;;;;;;5070670;28;20018;-74
2021/12/08 11:14:41;;;;;;;;;;;8.40;99.90;;;;;;5088551;28;20007;-74
2021/12/08 11:17:21;;;;;;;;;;;8.70;99.90;;;;;;5088984;28;19924;-75
2021/12/08 11:19:47;;;;;;;;;;;8.90;99.90;;;;;;5092239;28;20398;-75
2021/12/08 11:22:13;;;;;;;;;;;9.00;99.90;;;;;;5092641;28;19928;-74
2021/12/08 11:24:45;;;;;;;;;;;9.10;99.90;;;;;;5091992;28;19928;-75
2021/12/08 11:27:26;;;;;;;;;;;9.10;99.90;;;;;;5091771;28;20375;-74
2021/12/08 11:29:52;;;;;;;;;;;9.00;99.90;;;;;;5091835;28;19975;-74
2021/12/08 11:32:22;;;;;;;;;;;8.70;99.90;;;;;;5092698;28;19979;-74
2021/12/08 11:34:48;;;;;;;;;;;8.50;99.90;;;;;;5094814;28;19923;-75
2021/12/08 11:37:18;;;;;;;;;;;8.30;99.90;;;;;;5095199;28;19935;-74
2021/12/08 11:39:48;;;;;;;;;;;8.10;99.90;;;;;;5094791;28;19923;-74
2021/12/08 11:42:18;;;;;;;;;;;7.80;99.90;;;;;;5095028;28;20376;-74
2021/12/08 11:44:45;;;;;;;;;;;7.60;99.90;;;;;;5095006;28;19931;-74
2021/12/08 11:47:20;;;;;;;;;;;7.40;99.90;;;;;;5094309;28;19924;-74
2021/12/08 11:49:51;;;;;;;;;;;7.30;99.90;;;;;;5112884;28;19924;-74
2021/12/08 11:52:20;;;;;;;;;;;7.20;99.90;;;;;;5112826;28;20299;-74
2021/12/08 11:54:54;;;;;;;;;;;7.10;99.90;;;;;;5113031;28;19924;-74
2021/12/08 11:57:21;;;;;;;;;;;7.00;99.90;;;;;;5094343;28;19956;-74
2021/12/08 11:59:54;;;;;;;;;;;7.00;99.90;;;;;;5094600;28;19972;-73
2021/12/08 12:02:21;;;;;;;;;;;7.00;99.90;;;;;;5094772;28;20508;-75
2021/12/08 12:04:47;;;;;;;;;;;7.00;99.90;;;;;;5094389;28;20396;-75
2021/12/08 12:07:13;;;;;;;;;;;7.00;99.90;;;;;;5094575;28;19928;-75
2021/12/08 12:09:39;;;;;;;;;;;6.90;99.90;;;;;;5094448;28;20380;-75
2021/12/08 12:12:05;;;;;;;;;;;6.90;99.90;;;;;;5093415;28;19959;-75
2021/12/08 12:14:31;;;;;;;;;;;6.80;99.90;;;;;;5094617;28;19927;-75
2021/12/08 12:16:56;;;;;;;;;;;6.80;99.90;;;;;;5094255;28;20346;-75
2021/12/08 12:19:24;;;;;;;;;;;6.70;99.90;;;;;;5094494;28;19963;-75
2021/12/08 12:21:56;;;;;;;;;;;6.70;99.90;;;;;;5094113;28;19927;-75
2021/12/08 12:24:40;;;;;;;;;;;6.70;99.90;;;;;;5112665;28;20006;-75
2021/12/08 12:27:08;;;;;;;;;;;6.70;99.90;;;;;;5094044;28;20418;-76
2021/12/08 12:29:56;;;;;;;;;;;6.60;99.90;;;;;;5076976;28;20282;-75
2021/12/08 12:32:32;;;;;;;;;;;6.60;99.90;;;;;;5112167;28;20018;-76
2021/12/08 12:35:08;;;;;;;;;;;6.60;99.90;;;;;;5056504;28;19924;-75
2021/12/08 12:37:35;;;;;;;;;;;6.60;99.90;;;;;;5091853;28;20057;-75
2021/12/08 12:40:02;;;;;;;;;;;6.60;99.90;;;;;;5091536;28;20378;-73
2021/12/08 12:42:42;;;;;;;;;;;6.50;99.90;;;;;;5073632;28;20313;-75
2021/12/08 12:45:09;;;;;;;;;;;6.50;99.90;;;;;;5073505;28;20024;-75
2021/12/08 12:47:35;;;;;;;;;;;6.60;99.90;;;;;;5073468;28;19928;-75
2021/12/08 12:50:00;;;;;;;;;;;6.50;99.90;;;;;;5073610;28;19970;-75
2021/12/08 12:52:52;;;;;;;;;;;6.50;99.90;;;;;;5073380;28;19932;-73
2021/12/08 12:55:19;;;;;;;;;;;6.60;99.90;;;;;;5069153;28;19932;-73
2021/12/08 12:58:04;;;;;;;;;;;6.60;99.90;;;;;;5073199;28;19987;-73
2021/12/08 13:00:29;;;;;;;;;;;6.60;99.90;;;;;;5073396;28;19924;-75
2021/12/08 13:02:55;;;;;;;;;;;6.50;99.90;;;;;;5073235;28;19931;-76
2021/12/08 13:05:20;;;;;;;;;;;6.50;99.90;;;;;;5073193;28;19924;-75
2021/12/08 13:07:56;;;;;;;;;;;6.50;99.90;;;;;;5072596;28;19931;-75
2021/12/08 13:10:29;;;;;;;;;;;6.50;99.90;;;;;;5073208;28;20365;-73
2021/12/08 13:13:09;;;;;;;;;;;6.50;99.90;;;;;;5072611;28;19928;-73
2021/12/08 13:15:34;;;;;;;;;;;6.50;99.90;;;;;;5072917;28;19924;-73
2021/12/08 13:18:03;;;;;;;;;;;6.50;99.90;;;;;;5072674;28;20618;-75
2021/12/08 13:20:30;;;;;;;;;;;6.50;99.90;;;;;;5073155;28;20294;-75
2021/12/08 13:23:01;;;;;;;;;;;6.50;99.90;;;;;;5072682;28;20400;-74
2021/12/08 13:25:58;;;;;;;;;;;6.50;99.90;;;;;;5072994;28;19951;-74
2021/12/08 13:31:37;;;;;;;;;;;6.50;99.90;;;;;;5089613;28;19979;-74
2021/12/08 13:34:07;;;;;;;;;;;6.40;99.90;;;;;;5085131;28;19970;-74
2021/12/08 13:36:34;;;;;;;;;;;6.40;99.90;;;;;;5092536;28;20390;-75
2021/12/08 13:39:18;;;;;;;;;;;6.40;99.90;;;;;;5092700;28;20370;-74
2021/12/08 13:42:01;;;;;;;;;;;6.40;99.90;;;;;;5091816;28;20036;-74
2021/12/08 13:44:36;;;;;;;;;;;6.40;99.90;;;;;;5092701;28;19988;-74
2021/12/08 13:47:04;;;;;;;;;;;6.40;99.90;;;;;;5092661;28;20323;-74
2021/12/08 13:49:34;;;;;;;;;;;6.40;99.90;;;;;;5092921;28;19972;-74
2021/12/08 13:52:08;;;;;;;;;;;6.30;99.90;;;;;;5110182;28;19924;-74
2021/12/08 13:54:34;;;;;;;;;;;6.30;99.90;;;;;;5092735;28;20048;-74
2021/12/08 13:57:01;;;;;;;;;;;6.30;99.90;;;;;;5092267;28;19941;-74
2021/12/08 13:59:50;;;;;;;;;;;6.30;99.90;;;;;;5092352;28;19934;-74
2021/12/08 14:02:20;;;;;;;;;;;6.30;99.90;;;;;;5092383;28;19947;-74
2021/12/08 14:04:45;;;;;;;;;;;6.20;99.90;;;;;;5092275;28;19960;-74
2021/12/08 14:07:20;;;;;;;;;;;6.20;99.90;;;;;;5092379;28;20374;-74
2021/12/08 14:09:45;;;;;;;;;;;6.20;99.90;;;;;;5075300;28;19930;-74
2021/12/08 14:12:11;;;;;;;;;;;6.20;99.90;;;;;;5092560;28;19923;-74
2021/12/08 14:14:36;;;;;;;;;;;6.20;99.90;;;;;;5092030;28;19923;-74
2021/12/08 14:17:02;;;;;;;;;;;6.20;99.90;;;;;;5092060;28;19928;-74
2021/12/08 14:19:38;;;;;;;;;;;6.30;99.90;;;;;;5110692;28;19927;-75
2021/12/08 14:22:03;;;;;;;;;;;6.30;99.90;;;;;;5091978;28;20018;-75
2021/12/08 14:24:29;;;;;;;;;;;6.30;99.90;;;;;;5091922;28;20003;-74
2021/12/08 14:26:56;;;;;;;;;;;6.40;99.90;;;;;;5092229;28;19928;-75
2021/12/08 14:29:21;;;;;;;;;;;6.40;99.90;;;;;;5091920;28;19985;-75
2021/12/08 14:31:48;;;;;;;;;;;6.30;99.90;;;;;;5109344;28;19923;-75
2021/12/08 14:34:22;;;;;;;;;;;6.30;99.90;;;;;;5090420;28;19953;-75
2021/12/08 14:36:52;;;;;;;;;;;6.20;99.90;;;;;;5090903;28;20412;-75
2021/12/08 14:39:17;;;;;;;;;;;6.10;99.90;;;;;;5091413;28;19931;-75
2021/12/08 14:41:43;;;;;;;;;;;6.10;99.90;;;;;;5091190;28;19931;-74
2021/12/08 14:44:18;;;;;;;;;;;6.00;99.90;;;;;;5090723;28;20448;-75
2021/12/08 14:46:45;;;;;;;;;;;6.00;99.90;;;;;;5091046;28;20026;-75
2021/12/08 14:49:12;;;;;;;;;;;6.00;99.90;;;;;;5109328;28;19923;-75
2021/12/08 14:51:38;;;;;;;;;;;5.90;99.90;;;;;;5110442;28;20016;-75
2021/12/08 14:54:09;;;;;;;;;;;5.90;99.90;;;;;;5113450;28;20293;-75
2021/12/08 14:56:35;;;;;;;;;;;5.80;99.90;;;;;;5094298;28;19924;-75
2021/12/08 14:59:01;;;;;;;;;;;5.80;99.90;;;;;;5094927;28;20038;-75
2021/12/08 15:01:26;;;;;;;;;;;5.70;99.90;;;;;;5094672;28;20026;-75
2021/12/08 15:03:52;;;;;;;;;;;5.70;99.90;;;;;;5095367;28;19934;-75
2021/12/08 15:06:20;;;;;;;;;;;5.60;99.90;;;;;;5112474;28;19924;-75
2021/12/08 15:08:45;;;;;;;;;;;5.60;99.90;;;;;;5094935;28;19923;-75
2021/12/08 15:11:29;;;;;;;;;;;5.50;99.90;;;;;;5094794;28;20278;-74
2021/12/08 15:13:55;;;;;;;;;;;5.50;99.90;;;;;;5094702;28;20491;-75
2021/12/08 15:16:22;;;;;;;;;;;5.40;99.90;;;;;;5094780;28;19930;-75
2021/12/08 15:18:52;;;;;;;;;;;5.30;99.90;;;;;;5094374;28;19969;-74
2021/12/08 15:21:34;;;;;;;;;;;5.30;99.90;;;;;;5094381;28;19927;-75
2021/12/08 15:24:02;;;;;;;;;;;5.30;99.90;;;;;;5112496;28;19931;-75
2021/12/08 15:26:28;;;;;;;;;;;5.20;99.90;;;;;;5094804;28;20389;-75
2021/12/08 15:28:53;;;;;;;;;;;5.20;99.90;;;;;;5112474;28;19927;-75
2021/12/08 15:31:26;;;;;;;;;;;5.10;99.90;;;;;;5094023;28;20415;-75
2021/12/08 15:33:52;;;;;;;;;;;5.10;99.90;;;;;;5090696;28;19932;-74